KSME/SME METAR and TAF weather

Enter ICAO airport designator
Station Type Date Time Source
KSME METAR 2019/10/15 04:15 UTC NOAA

KSME 150415Z AUTO 00000KT 10SM CLR 07/06 A3013 RMK AO2


Station Type Date Time Source
KSME Decoded METAR 2019/10/15 04:15 UTC NOAA

Somerset, Somerset-Pulaski County - J.T. Wilson Field Airport, KY, United States (KSME) 37-03-15N 084-36-54W
Oct 15, 2019 - 12:15 AM EDT / 2019.10.15 0415 UTC
Wind: Calm:0
Visibility: 10 mile(s):0
Sky conditions: clear
Temperature: 44 F (7 C)
Dew Point: 42 F (6 C)
Relative Humidity: 93%
Pressure (altimeter): 30.13 in. Hg (1020 hPa)
ob: KSME 150415Z AUTO 00000KT 10SM CLR 07/06 A3013 RMK AO2
cycle: 4

Station Type Date Time Source
KSME TAF 2019/10/14 18:42 UTC NOAA

TAF KSME 141739Z 1418/1518 25006KT P6SM SKC
FM150000 VRB04KT P6SM SKC
FM151500 VRB05KT P6SM SCT150

Example: see airport list